sensor_id;sensor_type;location;lat;lon;timestamp;P1;durP1;ratioP1;P2;durP2;ratioP2
18174;SDS011;9212;50.894;16.714;2022-09-09T00:01:51;0.50;;;0.50;;
18174;SDS011;9212;50.894;16.714;2022-09-09T00:04:24;0.60;;;0.60;;
18174;SDS011;9212;50.894;16.714;2022-09-09T00:06:56;0.53;;;0.53;;
18174;SDS011;9212;50.894;16.714;2022-09-09T00:09:30;0.30;;;0.30;;
18174;SDS011;9212;50.894;16.714;2022-09-09T00:12:06;0.60;;;0.60;;
18174;SDS011;9212;50.894;16.714;2022-09-09T00:14:40;0.57;;;0.57;;
18174;SDS011;9212;50.894;16.714;2022-09-09T00:17:20;0.27;;;0.27;;
18174;SDS011;9212;50.894;16.714;2022-09-09T00:19:59;0.90;;;0.87;;
18174;SDS011;9212;50.894;16.714;2022-09-09T00:22:35;0.30;;;0.30;;
18174;SDS011;9212;50.894;16.714;2022-09-09T00:25:09;0.30;;;0.30;;
18174;SDS011;9212;50.894;16.714;2022-09-09T00:27:40;0.60;;;0.60;;
18174;SDS011;9212;50.894;16.714;2022-09-09T00:30:14;0.33;;;0.33;;
18174;SDS011;9212;50.894;16.714;2022-09-09T00:32:45;0.40;;;0.40;;
18174;SDS011;9212;50.894;16.714;2022-09-09T00:35:14;0.57;;;0.57;;
18174;SDS011;9212;50.894;16.714;2022-09-09T00:37:44;0.30;;;0.30;;
18174;SDS011;9212;50.894;16.714;2022-09-09T00:40:16;0.60;;;0.60;;
18174;SDS011;9212;50.894;16.714;2022-09-09T00:42:51;0.53;;;0.53;;
18174;SDS011;9212;50.894;16.714;2022-09-09T00:45:35;0.30;;;0.30;;
18174;SDS011;9212;50.894;16.714;2022-09-09T00:48:11;0.30;;;0.30;;
18174;SDS011;9212;50.894;16.714;2022-09-09T00:50:44;0.63;;;0.63;;
18174;SDS011;9212;50.894;16.714;2022-09-09T00:53:20;0.50;;;0.50;;
18174;SDS011;9212;50.894;16.714;2022-09-09T00:55:58;0.30;;;0.30;;
18174;SDS011;9212;50.894;16.714;2022-09-09T00:58:36;0.53;;;0.53;;
18174;SDS011;9212;50.894;16.714;2022-09-09T01:01:04;0.70;;;0.57;;
18174;SDS011;9212;50.894;16.714;2022-09-09T01:03:35;0.20;;;0.20;;
18174;SDS011;9212;50.894;16.714;2022-09-09T01:06:14;0.50;;;0.50;;
18174;SDS011;9212;50.894;16.714;2022-09-09T01:09:00;0.53;;;0.53;;
18174;SDS011;9212;50.894;16.714;2022-09-09T01:11:38;0.50;;;0.50;;
18174;SDS011;9212;50.894;16.714;2022-09-09T01:14:19;1.07;;;0.80;;
18174;SDS011;9212;50.894;16.714;2022-09-09T01:16:56;0.40;;;0.40;;
18174;SDS011;9212;50.894;16.714;2022-09-09T01:19:32;0.20;;;0.20;;
18174;SDS011;9212;50.894;16.714;2022-09-09T01:22:11;0.30;;;0.30;;
18174;SDS011;9212;50.894;16.714;2022-09-09T01:24:51;0.37;;;0.37;;
18174;SDS011;9212;50.894;16.714;2022-09-09T01:27:37;0.30;;;0.30;;
18174;SDS011;9212;50.894;16.714;2022-09-09T01:30:07;0.67;;;0.50;;
18174;SDS011;9212;50.894;16.714;2022-09-09T01:32:40;0.30;;;0.30;;
18174;SDS011;9212;50.894;16.714;2022-09-09T01:35:10;0.37;;;0.37;;
18174;SDS011;9212;50.894;16.714;2022-09-09T01:37:41;0.40;;;0.40;;
18174;SDS011;9212;50.894;16.714;2022-09-09T01:40:08;0.30;;;0.30;;
18174;SDS011;9212;50.894;16.714;2022-09-09T01:42:35;0.37;;;0.37;;
18174;SDS011;9212;50.894;16.714;2022-09-09T01:45:04;0.20;;;0.20;;
18174;SDS011;9212;50.894;16.714;2022-09-09T01:47:32;0.57;;;0.53;;
18174;SDS011;9212;50.894;16.714;2022-09-09T01:49:59;0.50;;;0.50;;
18174;SDS011;9212;50.894;16.714;2022-09-09T01:52:26;0.30;;;0.30;;
18174;SDS011;9212;50.894;16.714;2022-09-09T01:54:53;0.30;;;0.30;;
18174;SDS011;9212;50.894;16.714;2022-09-09T01:57:21;0.73;;;0.67;;
18174;SDS011;9212;50.894;16.714;2022-09-09T01:59:57;0.40;;;0.40;;
18174;SDS011;9212;50.894;16.714;2022-09-09T02:02:33;0.30;;;0.30;;
18174;SDS011;9212;50.894;16.714;2022-09-09T02:05:08;0.50;;;0.50;;
18174;SDS011;9212;50.894;16.714;2022-09-09T02:07:44;9.00;;;0.60;;
18174;SDS011;9212;50.894;16.714;2022-09-09T02:10:16;0.73;;;0.40;;
18174;SDS011;9212;50.894;16.714;2022-09-09T02:12:47;0.40;;;0.40;;
18174;SDS011;9212;50.894;16.714;2022-09-09T02:15:17;0.67;;;0.67;;
18174;SDS011;9212;50.894;16.714;2022-09-09T02:17:51;0.27;;;0.27;;
18174;SDS011;9212;50.894;16.714;2022-09-09T02:20:20;0.40;;;0.40;;
18174;SDS011;9212;50.894;16.714;2022-09-09T02:22:49;0.37;;;0.37;;
18174;SDS011;9212;50.894;16.714;2022-09-09T02:25:19;0.40;;;0.40;;
18174;SDS011;9212;50.894;16.714;2022-09-09T02:27:49;0.20;;;0.20;;
18174;SDS011;9212;50.894;16.714;2022-09-09T02:30:17;0.57;;;0.57;;
18174;SDS011;9212;50.894;16.714;2022-09-09T02:32:45;0.30;;;0.30;;
18174;SDS011;9212;50.894;16.714;2022-09-09T02:35:17;0.20;;;0.20;;
18174;SDS011;9212;50.894;16.714;2022-09-09T02:37:47;0.40;;;0.40;;
18174;SDS011;9212;50.894;16.714;2022-09-09T02:40:16;0.30;;;0.30;;
18174;SDS011;9212;50.894;16.714;2022-09-09T02:42:43;0.47;;;0.47;;
18174;SDS011;9212;50.894;16.714;2022-09-09T02:45:12;0.20;;;0.20;;
18174;SDS011;9212;50.894;16.714;2022-09-09T02:47:43;0.47;;;0.47;;
18174;SDS011;9212;50.894;16.714;2022-09-09T02:50:19;0.30;;;0.30;;
18174;SDS011;9212;50.894;16.714;2022-09-09T02:52:54;0.20;;;0.20;;
18174;SDS011;9212;50.894;16.714;2022-09-09T02:55:34;0.33;;;0.33;;
18174;SDS011;9212;50.894;16.714;2022-09-09T02:58:08;0.30;;;0.30;;
18174;SDS011;9212;50.894;16.714;2022-09-09T03:00:37;0.40;;;0.40;;
18174;SDS011;9212;50.894;16.714;2022-09-09T03:03:05;0.20;;;0.20;;
18174;SDS011;9212;50.894;16.714;2022-09-09T03:05:35;0.40;;;0.40;;
18174;SDS011;9212;50.894;16.714;2022-09-09T03:08:02;0.50;;;0.50;;
18174;SDS011;9212;50.894;16.714;2022-09-09T03:10:30;0.50;;;0.50;;
18174;SDS011;9212;50.894;16.714;2022-09-09T03:12:57;6.30;;;0.70;;
18174;SDS011;9212;50.894;16.714;2022-09-09T03:15:25;0.30;;;0.30;;
18174;SDS011;9212;50.894;16.714;2022-09-09T03:17:54;0.50;;;0.50;;
18174;SDS011;9212;50.894;16.714;2022-09-09T03:20:22;0.20;;;0.20;;
18174;SDS011;9212;50.894;16.714;2022-09-09T03:22:52;0.40;;;0.40;;
18174;SDS011;9212;50.894;16.714;2022-09-09T03:25:19;0.30;;;0.30;;
18174;SDS011;9212;50.894;16.714;2022-09-09T03:27:48;0.30;;;0.30;;
18174;SDS011;9212;50.894;16.714;2022-09-09T03:30:19;0.60;;;0.60;;
18174;SDS011;9212;50.894;16.714;2022-09-09T03:32:46;0.30;;;0.30;;
18174;SDS011;9212;50.894;16.714;2022-09-09T03:35:13;0.30;;;0.30;;
18174;SDS011;9212;50.894;16.714;2022-09-09T03:37:41;0.33;;;0.33;;
18174;SDS011;9212;50.894;16.714;2022-09-09T03:40:10;0.40;;;0.40;;
18174;SDS011;9212;50.894;16.714;2022-09-09T03:42:37;0.30;;;0.30;;
18174;SDS011;9212;50.894;16.714;2022-09-09T03:45:06;0.57;;;0.50;;
18174;SDS011;9212;50.894;16.714;2022-09-09T03:47:35;0.60;;;0.60;;
18174;SDS011;9212;50.894;16.714;2022-09-09T03:50:03;0.57;;;0.40;;
18174;SDS011;9212;50.894;16.714;2022-09-09T03:52:33;0.40;;;0.40;;
18174;SDS011;9212;50.894;16.714;2022-09-09T03:55:01;0.40;;;0.40;;
18174;SDS011;9212;50.894;16.714;2022-09-09T03:57:29;0.83;;;0.60;;
18174;SDS011;9212;50.894;16.714;2022-09-09T03:59:56;0.33;;;0.33;;
18174;SDS011;9212;50.894;16.714;2022-09-09T04:02:26;0.57;;;0.43;;
18174;SDS011;9212;50.894;16.714;2022-09-09T04:04:52;0.40;;;0.40;;
18174;SDS011;9212;50.894;16.714;2022-09-09T04:07:20;0.30;;;0.30;;
18174;SDS011;9212;50.894;16.714;2022-09-09T04:09:47;0.50;;;0.50;;
18174;SDS011;9212;50.894;16.714;2022-09-09T04:12:15;0.30;;;0.30;;
18174;SDS011;9212;50.894;16.714;2022-09-09T04:14:44;0.63;;;0.63;;
18174;SDS011;9212;50.894;16.714;2022-09-09T04:17:11;0.30;;;0.30;;
18174;SDS011;9212;50.894;16.714;2022-09-09T04:19:38;0.40;;;0.40;;
18174;SDS011;9212;50.894;16.714;2022-09-09T04:22:05;0.30;;;0.30;;
18174;SDS011;9212;50.894;16.714;2022-09-09T04:24:32;0.30;;;0.30;;
18174;SDS011;9212;50.894;16.714;2022-09-09T04:27:00;0.30;;;0.30;;
18174;SDS011;9212;50.894;16.714;2022-09-09T04:29:27;0.40;;;0.40;;
18174;SDS011;9212;50.894;16.714;2022-09-09T04:31:55;0.30;;;0.30;;
18174;SDS011;9212;50.894;16.714;2022-09-09T04:34:22;0.30;;;0.30;;
18174;SDS011;9212;50.894;16.714;2022-09-09T04:36:50;0.33;;;0.33;;
18174;SDS011;9212;50.894;16.714;2022-09-09T04:39:18;0.40;;;0.40;;
18174;SDS011;9212;50.894;16.714;2022-09-09T04:41:44;0.33;;;0.33;;
18174;SDS011;9212;50.894;16.714;2022-09-09T04:44:12;0.47;;;0.47;;
18174;SDS011;9212;50.894;16.714;2022-09-09T04:46:39;0.20;;;0.20;;
18174;SDS011;9212;50.894;16.714;2022-09-09T04:49:07;0.20;;;0.20;;
18174;SDS011;9212;50.894;16.714;2022-09-09T04:51:34;0.57;;;0.57;;
18174;SDS011;9212;50.894;16.714;2022-09-09T04:54:01;0.40;;;0.40;;
18174;SDS011;9212;50.894;16.714;2022-09-09T04:56:28;0.40;;;0.40;;
18174;SDS011;9212;50.894;16.714;2022-09-09T04:58:55;0.50;;;0.50;;
18174;SDS011;9212;50.894;16.714;2022-09-09T05:01:22;0.30;;;0.30;;
18174;SDS011;9212;50.894;16.714;2022-09-09T05:03:50;0.50;;;0.50;;
18174;SDS011;9212;50.894;16.714;2022-09-09T05:06:20;0.50;;;0.50;;
18174;SDS011;9212;50.894;16.714;2022-09-09T05:08:47;0.50;;;0.50;;
18174;SDS011;9212;50.894;16.714;2022-09-09T05:11:15;0.50;;;0.50;;
18174;SDS011;9212;50.894;16.714;2022-09-09T05:13:44;0.47;;;0.47;;
18174;SDS011;9212;50.894;16.714;2022-09-09T05:16:12;0.40;;;0.40;;
18174;SDS011;9212;50.894;16.714;2022-09-09T05:18:39;1.13;;;0.43;;
18174;SDS011;9212;50.894;16.714;2022-09-09T05:21:07;0.30;;;0.30;;
18174;SDS011;9212;50.894;16.714;2022-09-09T05:23:36;1.07;;;0.40;;
18174;SDS011;9212;50.894;16.714;2022-09-09T05:26:04;0.30;;;0.30;;
18174;SDS011;9212;50.894;16.714;2022-09-09T05:28:33;0.20;;;0.20;;
18174;SDS011;9212;50.894;16.714;2022-09-09T05:31:01;0.30;;;0.30;;
18174;SDS011;9212;50.894;16.714;2022-09-09T05:33:30;0.60;;;0.60;;
18174;SDS011;9212;50.894;16.714;2022-09-09T05:35:58;0.33;;;0.33;;
18174;SDS011;9212;50.894;16.714;2022-09-09T05:38:26;0.20;;;0.20;;
18174;SDS011;9212;50.894;16.714;2022-09-09T05:40:55;0.20;;;0.20;;
18174;SDS011;9212;50.894;16.714;2022-09-09T05:43:22;0.22;;;0.22;;
18174;SDS011;9212;50.894;16.714;2022-09-09T05:45:58;0.57;;;0.57;;
18174;SDS011;9212;50.894;16.714;2022-09-09T05:48:27;0.40;;;0.40;;
18174;SDS011;9212;50.894;16.714;2022-09-09T05:50:56;0.20;;;0.20;;
18174;SDS011;9212;50.894;16.714;2022-09-09T05:53:23;0.30;;;0.30;;
18174;SDS011;9212;50.894;16.714;2022-09-09T05:55:50;0.38;;;0.38;;
18174;SDS011;9212;50.894;16.714;2022-09-09T05:58:23;0.30;;;0.30;;
18174;SDS011;9212;50.894;16.714;2022-09-09T06:00:50;0.28;;;0.28;;
18174;SDS011;9212;50.894;16.714;2022-09-09T06:03:17;0.30;;;0.30;;
18174;SDS011;9212;50.894;16.714;2022-09-09T06:05:56;0.20;;;0.20;;
18174;SDS011;9212;50.894;16.714;2022-09-09T06:08:24;0.20;;;0.20;;
18174;SDS011;9212;50.894;16.714;2022-09-09T06:10:51;0.20;;;0.20;;
18174;SDS011;9212;50.894;16.714;2022-09-09T06:13:19;0.20;;;0.20;;
18174;SDS011;9212;50.894;16.714;2022-09-09T06:15:50;0.30;;;0.30;;
18174;SDS011;9212;50.894;16.714;2022-09-09T06:18:17;0.22;;;0.22;;
18174;SDS011;9212;50.894;16.714;2022-09-09T06:20:52;0.20;;;0.20;;
18174;SDS011;9212;50.894;16.714;2022-09-09T06:23:20;0.28;;;0.28;;
18174;SDS011;9212;50.894;16.714;2022-09-09T06:25:51;0.20;;;0.20;;
18174;SDS011;9212;50.894;16.714;2022-09-09T06:28:27;0.20;;;0.20;;
18174;SDS011;9212;50.894;16.714;2022-09-09T06:30:57;0.17;;;0.17;;
18174;SDS011;9212;50.894;16.714;2022-09-09T06:33:24;0.20;;;0.20;;
18174;SDS011;9212;50.894;16.714;2022-09-09T06:35:53;18.15;;;1.27;;
18174;SDS011;9212;50.894;16.714;2022-09-09T06:38:22;0.20;;;0.20;;
18174;SDS011;9212;50.894;16.714;2022-09-09T06:40:52;0.20;;;0.20;;
18174;SDS011;9212;50.894;16.714;2022-09-09T06:43:20;0.30;;;0.30;;
18174;SDS011;9212;50.894;16.714;2022-09-09T06:45:58;0.40;;;0.40;;
18174;SDS011;9212;50.894;16.714;2022-09-09T06:48:26;0.20;;;0.20;;
18174;SDS011;9212;50.894;16.714;2022-09-09T06:51:00;0.20;;;0.20;;
18174;SDS011;9212;50.894;16.714;2022-09-09T06:53:28;0.20;;;0.20;;
18174;SDS011;9212;50.894;16.714;2022-09-09T06:55:55;0.10;;;0.10;;
18174;SDS011;9212;50.894;16.714;2022-09-09T06:58:21;0.35;;;0.35;;
18174;SDS011;9212;50.894;16.714;2022-09-09T07:00:48;0.20;;;0.20;;
18174;SDS011;9212;50.894;16.714;2022-09-09T07:03:17;0.90;;;0.43;;
18174;SDS011;9212;50.894;16.714;2022-09-09T07:05:44;0.20;;;0.20;;
18174;SDS011;9212;50.894;16.714;2022-09-09T07:08:21;0.20;;;0.20;;
18174;SDS011;9212;50.894;16.714;2022-09-09T07:10:48;0.20;;;0.20;;
18174;SDS011;9212;50.894;16.714;2022-09-09T07:13:16;0.20;;;0.20;;
18174;SDS011;9212;50.894;16.714;2022-09-09T07:15:46;0.45;;;0.45;;
18174;SDS011;9212;50.894;16.714;2022-09-09T07:18:12;0.10;;;0.10;;
18174;SDS011;9212;50.894;16.714;2022-09-09T07:20:41;1.20;;;1.10;;
18174;SDS011;9212;50.894;16.714;2022-09-09T07:23:08;1.83;;;1.30;;
18174;SDS011;9212;50.894;16.714;2022-09-09T07:25:35;1.40;;;1.10;;
18174;SDS011;9212;50.894;16.714;2022-09-09T07:28:02;1.08;;;1.08;;
18174;SDS011;9212;50.894;16.714;2022-09-09T07:30:29;1.02;;;1.00;;
18174;SDS011;9212;50.894;16.714;2022-09-09T07:32:56;2.20;;;1.17;;
18174;SDS011;9212;50.894;16.714;2022-09-09T07:35:24;1.75;;;1.00;;
18174;SDS011;9212;50.894;16.714;2022-09-09T07:37:53;1.08;;;0.85;;
18174;SDS011;9212;50.894;16.714;2022-09-09T07:40:20;2.83;;;1.15;;
18174;SDS011;9212;50.894;16.714;2022-09-09T07:42:47;0.77;;;0.70;;
18174;SDS011;9212;50.894;16.714;2022-09-09T07:45:14;1.00;;;0.80;;
18174;SDS011;9212;50.894;16.714;2022-09-09T07:47:42;1.67;;;0.75;;
18174;SDS011;9212;50.894;16.714;2022-09-09T07:50:09;0.80;;;0.80;;
18174;SDS011;9212;50.894;16.714;2022-09-09T07:52:36;2.50;;;1.08;;
18174;SDS011;9212;50.894;16.714;2022-09-09T07:55:05;1.55;;;0.68;;
18174;SDS011;9212;50.894;16.714;2022-09-09T07:57:32;1.23;;;0.50;;
18174;SDS011;9212;50.894;16.714;2022-09-09T07:59:59;1.33;;;0.80;;
18174;SDS011;9212;50.894;16.714;2022-09-09T08:02:27;2.63;;;0.70;;
18174;SDS011;9212;50.894;16.714;2022-09-09T08:04:54;1.17;;;0.80;;
18174;SDS011;9212;50.894;16.714;2022-09-09T08:07:21;1.27;;;0.70;;
18174;SDS011;9212;50.894;16.714;2022-09-09T08:09:49;0.82;;;0.60;;
18174;SDS011;9212;50.894;16.714;2022-09-09T08:12:18;0.70;;;0.70;;
18174;SDS011;9212;50.894;16.714;2022-09-09T08:14:44;2.38;;;0.85;;
18174;SDS011;9212;50.894;16.714;2022-09-09T08:17:11;1.17;;;0.90;;
18174;SDS011;9212;50.894;16.714;2022-09-09T08:19:38;1.48;;;0.98;;
18174;SDS011;9212;50.894;16.714;2022-09-09T08:22:06;0.85;;;0.85;;
18174;SDS011;9212;50.894;16.714;2022-09-09T08:24:33;0.82;;;0.82;;
18174;SDS011;9212;50.894;16.714;2022-09-09T08:27:01;2.17;;;1.00;;
18174;SDS011;9212;50.894;16.714;2022-09-09T08:29:29;2.95;;;0.80;;
18174;SDS011;9212;50.894;16.714;2022-09-09T08:31:57;0.80;;;0.80;;
18174;SDS011;9212;50.894;16.714;2022-09-09T08:34:25;3.83;;;1.30;;
18174;SDS011;9212;50.894;16.714;2022-09-09T08:36:53;0.82;;;0.73;;
18174;SDS011;9212;50.894;16.714;2022-09-09T08:39:20;1.38;;;0.93;;
18174;SDS011;9212;50.894;16.714;2022-09-09T08:41:55;1.13;;;0.60;;
18174;SDS011;9212;50.894;16.714;2022-09-09T08:44:55;6.03;;;0.88;;
18174;SDS011;9212;50.894;16.714;2022-09-09T08:47:30;0.60;;;0.60;;
18174;SDS011;9212;50.894;16.714;2022-09-09T08:50:13;1.55;;;0.77;;
18174;SDS011;9212;50.894;16.714;2022-09-09T08:52:49;1.60;;;0.70;;
18174;SDS011;9212;50.894;16.714;2022-09-09T08:55:23;0.80;;;0.60;;
18174;SDS011;9212;50.894;16.714;2022-09-09T08:57:54;1.30;;;0.65;;
18174;SDS011;9212;50.894;16.714;2022-09-09T09:00:25;3.10;;;0.82;;
18174;SDS011;9212;50.894;16.714;2022-09-09T09:03:02;0.60;;;0.60;;
18174;SDS011;9212;50.894;16.714;2022-09-09T09:05:41;2.15;;;0.88;;
18174;SDS011;9212;50.894;16.714;2022-09-09T09:08:16;0.95;;;0.77;;
18174;SDS011;9212;50.894;16.714;2022-09-09T09:10:51;2.17;;;0.73;;
18174;SDS011;9212;50.894;16.714;2022-09-09T09:13:24;2.65;;;1.10;;
18174;SDS011;9212;50.894;16.714;2022-09-09T09:16:02;0.90;;;0.90;;
18174;SDS011;9212;50.894;16.714;2022-09-09T09:18:37;0.93;;;0.90;;
18174;SDS011;9212;50.894;16.714;2022-09-09T09:21:05;4.63;;;1.10;;
18174;SDS011;9212;50.894;16.714;2022-09-09T09:23:41;1.20;;;0.95;;
18174;SDS011;9212;50.894;16.714;2022-09-09T09:26:11;1.35;;;1.10;;
18174;SDS011;9212;50.894;16.714;2022-09-09T09:28:38;2.97;;;1.08;;
18174;SDS011;9212;50.894;16.714;2022-09-09T09:31:08;1.60;;;1.00;;
18174;SDS011;9212;50.894;16.714;2022-09-09T09:33:39;5.20;;;1.17;;
18174;SDS011;9212;50.894;16.714;2022-09-09T09:36:13;3.75;;;1.42;;
18174;SDS011;9212;50.894;16.714;2022-09-09T09:38:51;1.27;;;1.17;;
18174;SDS011;9212;50.894;16.714;2022-09-09T09:41:28;1.75;;;1.40;;
18174;SDS011;9212;50.894;16.714;2022-09-09T09:43:57;1.42;;;1.20;;
18174;SDS011;9212;50.894;16.714;2022-09-09T09:46:25;1.45;;;1.35;;
18174;SDS011;9212;50.894;16.714;2022-09-09T09:48:59;1.98;;;1.60;;
18174;SDS011;9212;50.894;16.714;2022-09-09T09:51:27;1.40;;;1.25;;
18174;SDS011;9212;50.894;16.714;2022-09-09T09:54:06;2.35;;;1.38;;
18174;SDS011;9212;50.894;16.714;2022-09-09T09:56:40;4.15;;;1.60;;
18174;SDS011;9212;50.894;16.714;2022-09-09T09:59:18;3.85;;;1.80;;
18174;SDS011;9212;50.894;16.714;2022-09-09T10:01:49;3.33;;;1.60;;
18174;SDS011;9212;50.894;16.714;2022-09-09T10:04:17;2.75;;;1.70;;
18174;SDS011;9212;50.894;16.714;2022-09-09T10:06:45;1.60;;;1.50;;
18174;SDS011;9212;50.894;16.714;2022-09-09T10:09:20;3.85;;;2.00;;
18174;SDS011;9212;50.894;16.714;2022-09-09T10:11:52;5.00;;;2.00;;
18174;SDS011;9212;50.894;16.714;2022-09-09T10:14:30;2.30;;;2.10;;
18174;SDS011;9212;50.894;16.714;2022-09-09T10:17:09;3.47;;;2.25;;
18174;SDS011;9212;50.894;16.714;2022-09-09T10:19:50;2.97;;;2.30;;
18174;SDS011;9212;50.894;16.714;2022-09-09T10:22:32;2.35;;;2.15;;
18174;SDS011;9212;50.894;16.714;2022-09-09T10:25:03;2.42;;;2.10;;
18174;SDS011;9212;50.894;16.714;2022-09-09T10:27:47;3.28;;;1.85;;
18174;SDS011;9212;50.894;16.714;2022-09-09T10:30:22;2.70;;;2.22;;
18174;SDS011;9212;50.894;16.714;2022-09-09T10:32:57;1.92;;;1.83;;
18174;SDS011;9212;50.894;16.714;2022-09-09T10:35:33;2.30;;;1.75;;
18174;SDS011;9212;50.894;16.714;2022-09-09T10:38:12;2.05;;;1.80;;
18174;SDS011;9212;50.894;16.714;2022-09-09T10:40:43;2.70;;;1.70;;
18174;SDS011;9212;50.894;16.714;2022-09-09T10:43:29;2.20;;;1.77;;
18174;SDS011;9212;50.894;16.714;2022-09-09T10:46:06;2.17;;;2.00;;
18174;SDS011;9212;50.894;16.714;2022-09-09T10:48:45;4.25;;;2.80;;
18174;SDS011;9212;50.894;16.714;2022-09-09T10:51:28;2.20;;;2.00;;
18174;SDS011;9212;50.894;16.714;2022-09-09T10:54:09;3.85;;;1.98;;
18174;SDS011;9212;50.894;16.714;2022-09-09T10:56:48;3.53;;;2.08;;
18174;SDS011;9212;50.894;16.714;2022-09-09T10:59:22;2.10;;;1.90;;
18174;SDS011;9212;50.894;16.714;2022-09-09T11:01:53;2.03;;;1.90;;
18174;SDS011;9212;50.894;16.714;2022-09-09T11:04:29;2.38;;;2.00;;
18174;SDS011;9212;50.894;16.714;2022-09-09T11:06:59;1.75;;;1.63;;
18174;SDS011;9212;50.894;16.714;2022-09-09T11:09:35;3.15;;;1.85;;
18174;SDS011;9212;50.894;16.714;2022-09-09T11:12:05;3.55;;;1.90;;
18174;SDS011;9212;50.894;16.714;2022-09-09T11:14:40;2.83;;;1.60;;
18174;SDS011;9212;50.894;16.714;2022-09-09T11:17:10;1.80;;;1.70;;
18174;SDS011;9212;50.894;16.714;2022-09-09T11:19:43;1.80;;;1.70;;
18174;SDS011;9212;50.894;16.714;2022-09-09T11:22:15;3.08;;;1.80;;
18174;SDS011;9212;50.894;16.714;2022-09-09T11:24:49;1.92;;;1.67;;
18174;SDS011;9212;50.894;16.714;2022-09-09T11:27:20;2.67;;;1.75;;
18174;SDS011;9212;50.894;16.714;2022-09-09T11:29:57;2.38;;;1.65;;
18174;SDS011;9212;50.894;16.714;2022-09-09T11:32:40;1.30;;;1.20;;
18174;SDS011;9212;50.894;16.714;2022-09-09T11:35:33;1.70;;;1.17;;
18174;SDS011;9212;50.894;16.714;2022-09-09T11:38:21;1.67;;;1.10;;
18174;SDS011;9212;50.894;16.714;2022-09-09T11:40:59;5.45;;;1.30;;
18174;SDS011;9212;50.894;16.714;2022-09-09T11:43:32;2.55;;;1.40;;
18174;SDS011;9212;50.894;16.714;2022-09-09T11:46:05;1.88;;;1.48;;
18174;SDS011;9212;50.894;16.714;2022-09-09T11:48:33;1.50;;;1.30;;
18174;SDS011;9212;50.894;16.714;2022-09-09T11:51:07;5.05;;;1.33;;
18174;SDS011;9212;50.894;16.714;2022-09-09T11:53:46;3.53;;;1.30;;
18174;SDS011;9212;50.894;16.714;2022-09-09T11:56:22;1.42;;;1.33;;
18174;SDS011;9212;50.894;16.714;2022-09-09T11:58:56;1.60;;;0.95;;
18174;SDS011;9212;50.894;16.714;2022-09-09T12:01:36;1.48;;;1.38;;
18174;SDS011;9212;50.894;16.714;2022-09-09T12:04:14;1.02;;;1.02;;
18174;SDS011;9212;50.894;16.714;2022-09-09T12:06:54;1.35;;;1.13;;
18174;SDS011;9212;50.894;16.714;2022-09-09T12:09:28;1.48;;;0.98;;
18174;SDS011;9212;50.894;16.714;2022-09-09T12:15:01;1.20;;;1.10;;
18174;SDS011;9212;50.894;16.714;2022-09-09T12:17:51;1.77;;;1.40;;
18174;SDS011;9212;50.894;16.714;2022-09-09T12:20:20;3.45;;;1.50;;
18174;SDS011;9212;50.894;16.714;2022-09-09T12:22:56;2.45;;;1.63;;
18174;SDS011;9212;50.894;16.714;2022-09-09T12:25:41;1.95;;;1.10;;
18174;SDS011;9212;50.894;16.714;2022-09-09T12:28:25;2.22;;;1.48;;
18174;SDS011;9212;50.894;16.714;2022-09-09T12:31:01;3.15;;;1.90;;
18174;SDS011;9212;50.894;16.714;2022-09-09T12:33:35;3.30;;;1.30;;
18174;SDS011;9212;50.894;16.714;2022-09-09T12:36:05;2.38;;;1.50;;
18174;SDS011;9212;50.894;16.714;2022-09-09T12:38:40;1.25;;;1.20;;
18174;SDS011;9212;50.894;16.714;2022-09-09T12:41:15;2.33;;;1.15;;
18174;SDS011;9212;50.894;16.714;2022-09-09T12:43:45;1.80;;;1.15;;
18174;SDS011;9212;50.894;16.714;2022-09-09T12:46:14;1.27;;;1.10;;
18174;SDS011;9212;50.894;16.714;2022-09-09T12:48:51;1.73;;;1.40;;
18174;SDS011;9212;50.894;16.714;2022-09-09T12:51:22;3.85;;;1.52;;
18174;SDS011;9212;50.894;16.714;2022-09-09T12:53:54;2.08;;;1.52;;
18174;SDS011;9212;50.894;16.714;2022-09-09T12:56:22;6.90;;;1.55;;
18174;SDS011;9212;50.894;16.714;2022-09-09T12:58:53;3.80;;;1.40;;
18174;SDS011;9212;50.894;16.714;2022-09-09T13:01:22;3.05;;;1.40;;
18174;SDS011;9212;50.894;16.714;2022-09-09T13:03:52;3.72;;;1.70;;
18174;SDS011;9212;50.894;16.714;2022-09-09T13:06:20;2.95;;;1.38;;
18174;SDS011;9212;50.894;16.714;2022-09-09T13:08:56;1.45;;;1.35;;
18174;SDS011;9212;50.894;16.714;2022-09-09T13:11:26;1.85;;;1.50;;
18174;SDS011;9212;50.894;16.714;2022-09-09T13:13:57;4.85;;;1.30;;
18174;SDS011;9212;50.894;16.714;2022-09-09T13:16:25;1.67;;;1.20;;
18174;SDS011;9212;50.894;16.714;2022-09-09T13:18:56;1.52;;;1.42;;
18174;SDS011;9212;50.894;16.714;2022-09-09T13:21:30;1.10;;;1.00;;
18174;SDS011;9212;50.894;16.714;2022-09-09T13:24:01;1.77;;;1.10;;
18174;SDS011;9212;50.894;16.714;2022-09-09T13:26:29;3.22;;;1.45;;
18174;SDS011;9212;50.894;16.714;2022-09-09T13:29:07;1.67;;;1.30;;
18174;SDS011;9212;50.894;16.714;2022-09-09T13:31:42;4.20;;;1.13;;
18174;SDS011;9212;50.894;16.714;2022-09-09T13:34:11;1.55;;;0.98;;
18174;SDS011;9212;50.894;16.714;2022-09-09T13:36:39;1.65;;;0.90;;
18174;SDS011;9212;50.894;16.714;2022-09-09T13:39:15;1.80;;;1.20;;
18174;SDS011;9212;50.894;16.714;2022-09-09T13:41:44;1.40;;;0.88;;
18174;SDS011;9212;50.894;16.714;2022-09-09T13:44:17;2.45;;;1.05;;
18174;SDS011;9212;50.894;16.714;2022-09-09T13:46:58;2.63;;;1.10;;
18174;SDS011;9212;50.894;16.714;2022-09-09T13:49:28;1.88;;;1.20;;
18174;SDS011;9212;50.894;16.714;2022-09-09T13:52:05;3.03;;;1.20;;
18174;SDS011;9212;50.894;16.714;2022-09-09T13:54:37;1.15;;;1.15;;
18174;SDS011;9212;50.894;16.714;2022-09-09T13:57:04;2.38;;;1.33;;
18174;SDS011;9212;50.894;16.714;2022-09-09T13:59:32;1.75;;;1.02;;
18174;SDS011;9212;50.894;16.714;2022-09-09T14:01:59;1.75;;;1.30;;
18174;SDS011;9212;50.894;16.714;2022-09-09T14:04:26;2.33;;;1.30;;
18174;SDS011;9212;50.894;16.714;2022-09-09T14:06:54;1.50;;;1.40;;
18174;SDS011;9212;50.894;16.714;2022-09-09T14:09:22;1.27;;;1.17;;
18174;SDS011;9212;50.894;16.714;2022-09-09T14:11:50;2.97;;;1.35;;
18174;SDS011;9212;50.894;16.714;2022-09-09T14:14:17;5.10;;;1.30;;
18174;SDS011;9212;50.894;16.714;2022-09-09T14:16:44;2.65;;;1.45;;
18174;SDS011;9212;50.894;16.714;2022-09-09T14:19:11;1.50;;;1.10;;
18174;SDS011;9212;50.894;16.714;2022-09-09T14:21:38;2.25;;;1.30;;
18174;SDS011;9212;50.894;16.714;2022-09-09T14:24:04;1.60;;;1.30;;
18174;SDS011;9212;50.894;16.714;2022-09-09T14:26:32;2.15;;;1.48;;
18174;SDS011;9212;50.894;16.714;2022-09-09T14:29:00;5.97;;;1.20;;
18174;SDS011;9212;50.894;16.714;2022-09-09T14:31:28;3.70;;;1.20;;
18174;SDS011;9212;50.894;16.714;2022-09-09T14:33:59;0.80;;;0.80;;
18174;SDS011;9212;50.894;16.714;2022-09-09T14:36:26;3.70;;;1.15;;
18174;SDS011;9212;50.894;16.714;2022-09-09T14:38:52;2.92;;;1.02;;
18174;SDS011;9212;50.894;16.714;2022-09-09T14:41:19;1.40;;;1.30;;
18174;SDS011;9212;50.894;16.714;2022-09-09T14:43:47;2.42;;;1.33;;
18174;SDS011;9212;50.894;16.714;2022-09-09T14:46:17;2.30;;;1.13;;
18174;SDS011;9212;50.894;16.714;2022-09-09T14:48:45;8.30;;;1.33;;
18174;SDS011;9212;50.894;16.714;2022-09-09T14:51:14;2.80;;;1.10;;
18174;SDS011;9212;50.894;16.714;2022-09-09T14:53:43;4.72;;;1.25;;
18174;SDS011;9212;50.894;16.714;2022-09-09T14:56:11;2.55;;;1.17;;
18174;SDS011;9212;50.894;16.714;2022-09-09T14:58:39;2.53;;;1.00;;
18174;SDS011;9212;50.894;16.714;2022-09-09T15:01:07;1.40;;;1.30;;
18174;SDS011;9212;50.894;16.714;2022-09-09T15:03:37;1.92;;;1.40;;
18174;SDS011;9212;50.894;16.714;2022-09-09T15:06:04;1.08;;;0.98;;
18174;SDS011;9212;50.894;16.714;2022-09-09T15:08:33;2.90;;;1.38;;
18174;SDS011;9212;50.894;16.714;2022-09-09T15:11:00;3.45;;;1.35;;
18174;SDS011;9212;50.894;16.714;2022-09-09T15:13:28;3.92;;;1.40;;
18174;SDS011;9212;50.894;16.714;2022-09-09T15:15:55;1.30;;;1.20;;